createdAt,value
2023-04-05T00:00:00.958Z,78.61
2023-04-05T00:02:29.777Z,78.21
2023-04-05T00:04:57.807Z,79.09
2023-04-05T00:07:24.586Z,79.94
2023-04-05T00:09:54.278Z,81.12
2023-04-05T00:12:24.470Z,80.95
2023-04-05T00:14:54.965Z,82.32
2023-04-05T00:17:24.284Z,81.60
2023-04-05T00:19:57.290Z,81.85
2023-04-05T00:22:26.464Z,82.23
2023-04-05T00:24:55.843Z,82.38
2023-04-05T00:27:23.013Z,82.13
2023-04-05T00:29:49.437Z,81.94
2023-04-05T00:32:16.125Z,82.25
2023-04-05T00:34:42.670Z,83.76
2023-04-05T00:37:09.143Z,83.64
2023-04-05T00:39:35.728Z,82.67
2023-04-05T00:42:06.176Z,83.27
2023-04-05T00:44:36.177Z,83.77
2023-04-05T00:47:04.760Z,83.51
2023-04-05T00:49:32.535Z,82.16
2023-04-05T00:51:59.362Z,82.79
2023-04-05T00:54:26.289Z,83.21
2023-04-05T00:56:53.860Z,83.02
2023-04-05T00:59:20.700Z,83.82
2023-04-05T01:01:55.257Z,82.76
2023-04-05T01:04:25.967Z,85.00
2023-04-05T01:07:17.309Z,85.82
2023-04-05T01:09:55.405Z,85.15
2023-04-05T01:12:26.198Z,84.74
2023-04-05T01:14:55.620Z,84.66
2023-04-05T01:17:28.020Z,84.04
2023-04-05T01:20:03.929Z,84.07
2023-04-05T01:22:52.154Z,84.56
2023-04-05T01:25:37.211Z,84.46
2023-04-05T01:28:27.408Z,84.16
2023-04-05T01:31:18.038Z,84.07
2023-04-05T01:33:57.028Z,83.59
2023-04-05T01:36:49.335Z,82.80
2023-04-05T01:39:20.232Z,83.46
2023-04-05T01:41:47.423Z,82.48
2023-04-05T01:44:14.000Z,82.73
2023-04-05T01:46:40.797Z,82.02
2023-04-05T01:49:07.688Z,82.13
2023-04-05T01:51:34.160Z,82.46
2023-04-05T01:54:00.609Z,82.80
2023-04-05T01:56:29.872Z,82.60
2023-04-05T01:58:59.720Z,83.18
2023-04-05T02:01:29.079Z,85.29
2023-04-05T02:04:00.346Z,86.22
2023-04-05T02:06:32.199Z,87.14
2023-04-05T02:08:58.725Z,86.38
2023-04-05T02:11:25.392Z,86.42
2023-04-05T02:13:51.804Z,85.58
2023-04-05T02:16:18.469Z,84.41
2023-04-05T02:18:50.766Z,84.05
2023-04-05T02:21:17.266Z,83.14
2023-04-05T02:23:44.056Z,81.75
2023-04-05T02:26:10.498Z,81.36
2023-04-05T02:28:36.978Z,80.61
2023-04-05T02:31:09.018Z,80.01
2023-04-05T02:33:35.634Z,79.73
2023-04-05T02:36:06.569Z,79.63
2023-04-05T02:38:33.930Z,78.96
2023-04-05T02:41:00.369Z,78.54
2023-04-05T02:43:29.290Z,78.10
2023-04-05T02:45:55.867Z,77.42
2023-04-05T02:48:22.397Z,77.81
2023-04-05T02:50:52.723Z,77.87
2023-04-05T02:53:19.245Z,78.88
2023-04-05T02:55:55.653Z,79.36
2023-04-05T02:58:22.432Z,79.77
2023-04-05T03:00:51.141Z,79.16
2023-04-05T03:03:20.893Z,78.48
2023-04-05T03:05:48.657Z,78.42
2023-04-05T03:08:19.433Z,78.14
2023-04-05T03:10:46.849Z,78.41
2023-04-05T03:13:16.380Z,78.23
2023-04-05T03:15:43.579Z,78.51
2023-04-05T03:18:10.656Z,79.21
2023-04-05T03:20:41.384Z,78.29
2023-04-05T03:23:10.956Z,78.55
2023-04-05T03:25:38.325Z,77.76
2023-04-05T03:28:05.803Z,78.57
2023-04-05T03:30:36.059Z,78.70
2023-04-05T03:33:03.167Z,78.94
2023-04-05T03:35:30.707Z,79.27
2023-04-05T03:37:57.400Z,79.94
2023-04-05T03:40:24.577Z,78.82
2023-04-05T03:42:51.396Z,78.29
2023-04-05T03:45:23.802Z,78.04
2023-04-05T03:47:51.164Z,77.71
2023-04-05T03:50:17.707Z,76.99
2023-04-05T03:52:44.263Z,77.50
2023-04-05T03:55:10.805Z,78.48
2023-04-05T03:57:38.261Z,79.28
2023-04-05T04:00:24.441Z,78.43
2023-04-05T04:02:52.554Z,78.62
2023-04-05T04:05:19.801Z,79.09
2023-04-05T04:07:47.216Z,79.04
2023-04-05T04:10:17.572Z,79.75
2023-04-05T04:12:45.062Z,79.72
2023-04-05T04:15:12.393Z,80.50
2023-04-05T04:17:39.749Z,79.95
2023-04-05T04:20:12.429Z,80.23
2023-04-05T04:22:40.409Z,80.72
2023-04-05T04:25:11.621Z,81.28
2023-04-05T04:27:40.352Z,82.03
2023-04-05T04:30:12.017Z,82.42
2023-04-05T04:32:52.073Z,82.13
2023-04-05T04:35:24.755Z,81.45
2023-04-05T04:37:59.454Z,81.31
2023-04-05T04:40:38.708Z,81.47
2023-04-05T04:43:19.073Z,81.63
2023-04-05T04:45:50.282Z,82.08
2023-04-05T04:48:17.327Z,81.70
2023-04-05T04:50:49.800Z,82.57
2023-04-05T04:53:26.808Z,83.44
2023-04-05T04:55:55.168Z,83.89
2023-04-05T04:58:21.625Z,79.36
2023-04-05T05:00:48.363Z,81.29
2023-04-05T05:03:15.008Z,82.89
2023-04-05T05:05:46.909Z,82.98
2023-04-05T05:08:14.105Z,83.25
2023-04-05T05:10:40.859Z,82.72
2023-04-05T05:13:08.269Z,81.38
2023-04-05T05:15:34.748Z,80.25
2023-04-05T05:18:01.302Z,79.60
2023-04-05T05:20:28.683Z,79.97
2023-04-05T05:23:01.398Z,79.96
2023-04-05T05:25:28.512Z,80.15
2023-04-05T05:27:55.862Z,80.14
2023-04-05T05:30:22.643Z,81.00
2023-04-05T05:32:52.974Z,81.69
2023-04-05T05:35:19.507Z,82.09
2023-04-05T05:37:46.030Z,80.68
2023-04-05T05:40:13.334Z,81.11
2023-04-05T05:42:39.917Z,82.42
2023-04-05T05:45:10.255Z,82.64
2023-04-05T05:47:38.349Z,82.33
2023-04-05T05:50:07.818Z,82.40
2023-04-05T05:52:38.367Z,82.80
2023-04-05T05:55:05.166Z,83.21
2023-04-05T05:57:31.929Z,83.18
2023-04-05T05:59:58.675Z,84.16
2023-04-05T06:02:26.248Z,82.31
2023-04-05T06:04:52.861Z,82.00
2023-04-05T06:07:19.445Z,82.24
2023-04-05T06:09:47.624Z,82.16
2023-04-05T06:12:14.156Z,83.38
2023-04-05T06:14:41.007Z,82.92
2023-04-05T06:17:10.518Z,83.37
2023-04-05T06:19:38.607Z,84.51
2023-04-05T06:22:06.634Z,84.51
2023-04-05T06:24:33.723Z,84.45
2023-04-05T06:27:01.225Z,83.95
2023-04-05T06:29:27.688Z,83.42
2023-04-05T06:31:55.516Z,82.87
2023-04-05T06:34:22.196Z,81.93
2023-04-05T06:36:48.740Z,80.85
2023-04-05T06:39:15.485Z,80.04
2023-04-05T06:41:41.909Z,80.16
2023-04-05T06:44:10.990Z,80.52
2023-04-05T06:46:40.421Z,79.51
2023-04-05T06:49:09.921Z,79.01
2023-04-05T06:51:38.324Z,78.96
2023-04-05T06:54:04.841Z,78.34
2023-04-05T06:56:31.278Z,78.60
2023-04-05T06:59:02.363Z,77.96
2023-04-05T07:01:29.422Z,77.39
2023-04-05T07:03:56.124Z,77.29
2023-04-05T07:06:24.007Z,78.09
2023-04-05T07:08:50.588Z,76.37
2023-04-05T07:11:17.036Z,76.62
2023-04-05T07:13:43.503Z,75.37
2023-04-05T07:16:10.055Z,75.03
2023-04-05T07:18:40.869Z,73.92
2023-04-05T07:21:10.332Z,73.48
2023-04-05T07:23:40.810Z,73.02
2023-04-05T07:26:12.505Z,72.99
2023-04-05T07:28:42.089Z,71.55
2023-04-05T07:31:11.818Z,71.49
2023-04-05T07:33:41.365Z,71.49
2023-04-05T07:36:11.002Z,70.14
2023-04-05T07:38:41.537Z,66.60
2023-04-05T07:41:11.664Z,66.94
2023-04-05T07:43:39.199Z,64.14
2023-04-05T07:46:08.174Z,64.30
2023-04-05T07:48:34.760Z,64.11
2023-04-05T07:51:14.668Z,63.73
2023-04-05T07:53:43.116Z,63.60
2023-04-05T07:56:14.224Z,62.60
2023-04-05T07:58:41.311Z,63.19
2023-04-05T08:01:11.509Z,60.59
2023-04-05T08:03:39.937Z,58.62
2023-04-05T08:06:11.658Z,57.29
2023-04-05T08:08:41.723Z,55.60
2023-04-05T08:11:08.758Z,55.44
2023-04-05T08:13:37.467Z,54.63
2023-04-05T08:16:04.389Z,55.50
2023-04-05T08:18:30.875Z,54.63
2023-04-05T08:20:57.925Z,52.51
2023-04-05T08:23:24.375Z,51.38
2023-04-05T08:25:51.401Z,50.42
2023-04-05T08:28:17.880Z,49.34
2023-04-05T08:30:45.986Z,48.60
2023-04-05T08:33:12.980Z,46.77
2023-04-05T08:35:39.840Z,47.37
2023-04-05T08:38:09.639Z,45.88
2023-04-05T08:40:44.711Z,43.84
2023-04-05T08:43:28.324Z,44.38
2023-04-05T08:45:58.773Z,43.59
2023-04-05T08:48:27.443Z,39.80
2023-04-05T08:50:54.556Z,40.60
2023-04-05T08:53:21.896Z,40.33
2023-04-05T08:55:52.976Z,37.48
2023-04-05T08:58:24.213Z,37.77
2023-04-05T09:00:51.968Z,37.30
2023-04-05T09:03:23.154Z,36.73
2023-04-05T09:05:53.486Z,36.45
2023-04-05T09:08:23.737Z,36.14
2023-04-05T09:10:53.375Z,36.15
2023-04-05T09:13:20.077Z,35.88
2023-04-05T09:15:47.147Z,35.42
2023-04-05T09:18:25.383Z,35.77
2023-04-05T09:21:01.763Z,37.26
2023-04-05T09:23:28.847Z,35.53
2023-04-05T09:25:55.346Z,35.47
2023-04-05T09:28:21.823Z,33.71
2023-04-05T09:30:48.313Z,35.12
2023-04-05T09:33:19.873Z,34.98
2023-04-05T09:35:51.385Z,33.75
2023-04-05T09:38:17.887Z,32.85
2023-04-05T09:40:46.132Z,32.90
2023-04-05T09:43:33.410Z,33.71
2023-04-05T09:46:00.306Z,32.48
2023-04-05T09:48:51.595Z,32.32
2023-04-05T09:51:18.789Z,31.80
2023-04-05T09:54:02.496Z,33.96
2023-04-05T09:56:32.117Z,34.82
2023-04-05T09:59:01.493Z,33.61
2023-04-05T10:01:31.879Z,33.23
2023-04-05T10:04:03.096Z,32.64
2023-04-05T10:06:41.687Z,32.68
2023-04-05T10:09:11.156Z,32.57
2023-04-05T10:11:38.965Z,31.81
2023-04-05T10:14:08.671Z,33.02
2023-04-05T10:16:53.678Z,30.98
2023-04-05T10:19:46.441Z,31.63
2023-04-05T10:22:29.143Z,31.69
2023-04-05T10:25:02.493Z,31.47
2023-04-05T10:27:49.589Z,29.46
2023-04-05T10:30:16.773Z,29.06
2023-04-05T10:32:46.062Z,29.94
2023-04-05T10:35:16.191Z,31.31
2023-04-05T10:38:09.263Z,28.59
2023-04-05T10:40:38.592Z,29.27
2023-04-05T10:43:18.319Z,28.99
2023-04-05T10:45:48.081Z,30.86
2023-04-05T10:48:33.317Z,28.06
2023-04-05T10:51:00.607Z,29.81
2023-04-05T10:53:27.631Z,29.62
2023-04-05T10:55:57.825Z,28.86
2023-04-05T10:58:26.190Z,28.13
2023-04-05T11:00:54.924Z,27.29
2023-04-05T11:03:51.891Z,27.87
2023-04-05T11:06:21.453Z,26.99
2023-04-05T11:08:50.302Z,27.51
2023-04-05T11:11:18.858Z,28.76
2023-04-05T11:13:53.888Z,29.01
2023-04-05T11:16:21.529Z,30.92
2023-04-05T11:18:52.372Z,31.24
2023-04-05T11:21:26.127Z,29.65
2023-04-05T11:24:15.467Z,28.72
2023-04-05T11:26:41.906Z,29.49
2023-04-05T11:29:11.734Z,29.83
2023-04-05T11:31:59.793Z,30.11
2023-04-05T11:34:26.757Z,28.42
2023-04-05T11:36:53.747Z,29.01
2023-04-05T11:39:23.655Z,27.95
2023-04-05T11:41:56.034Z,26.94
2023-04-05T11:44:24.357Z,27.70
2023-04-05T11:46:52.356Z,29.33
2023-04-05T11:49:23.282Z,28.78
2023-04-05T11:51:51.595Z,28.60
2023-04-05T11:54:31.987Z,27.54
2023-04-05T11:56:58.709Z,27.50
2023-04-05T11:59:33.446Z,27.25
2023-04-05T12:02:06.197Z,27.40
2023-04-05T12:04:33.520Z,26.75
2023-04-05T12:07:12.315Z,26.52
2023-04-05T12:10:04.755Z,26.62
2023-04-05T12:12:42.225Z,26.81
2023-04-05T12:15:14.130Z,25.86
2023-04-05T12:17:49.634Z,27.12
2023-04-05T12:20:20.267Z,28.21
2023-04-05T12:22:48.727Z,25.95
2023-04-05T12:25:17.091Z,27.19
2023-04-05T12:27:44.085Z,26.28
2023-04-05T12:30:21.553Z,26.05
2023-04-05T12:32:52.730Z,25.55
2023-04-05T12:35:22.546Z,27.30
2023-04-05T12:37:51.416Z,26.06
2023-04-05T12:40:24.921Z,27.81
2023-04-05T12:42:51.935Z,28.95
2023-04-05T12:45:18.853Z,27.05
2023-04-05T12:47:50.648Z,28.92
2023-04-05T12:50:18.386Z,25.26
2023-04-05T12:53:05.024Z,26.71
2023-04-05T12:55:31.952Z,24.65
2023-04-05T12:58:03.880Z,24.75
2023-04-05T13:00:31.550Z,23.66
2023-04-05T13:02:59.658Z,25.10
2023-04-05T13:05:28.626Z,24.65
2023-04-05T13:07:55.470Z,23.36
2023-04-05T13:10:24.193Z,25.08
2023-04-05T13:12:50.910Z,25.30
2023-04-05T13:15:18.177Z,24.39
2023-04-05T13:17:45.772Z,24.99
2023-04-05T13:20:12.492Z,24.50
2023-04-05T13:22:40.629Z,24.17
2023-04-05T13:25:07.360Z,24.29
2023-04-05T13:27:34.104Z,22.02
2023-04-05T13:30:00.655Z,24.98
2023-04-05T13:32:27.383Z,22.70
2023-04-05T13:34:53.908Z,24.04
2023-04-05T13:37:20.447Z,25.01
2023-04-05T13:39:46.996Z,22.17
2023-04-05T13:42:13.470Z,24.24
2023-04-05T13:44:43.512Z,24.05
2023-04-05T13:47:14.910Z,24.41
2023-04-05T13:49:44.119Z,22.68
2023-04-05T13:52:11.810Z,23.67
2023-04-05T13:54:38.285Z,22.25
2023-04-05T13:57:05.626Z,22.68
2023-04-05T13:59:32.286Z,24.62
2023-04-05T14:01:59.007Z,24.55
2023-04-05T14:04:25.596Z,23.88
2023-04-05T14:06:52.065Z,23.53
2023-04-05T14:09:18.564Z,23.34
2023-04-05T14:11:45.262Z,22.93
2023-04-05T14:14:11.775Z,24.90
2023-04-05T14:16:38.345Z,23.89
2023-04-05T14:19:06.203Z,23.21
2023-04-05T14:21:33.180Z,23.94
2023-04-05T14:23:59.813Z,23.98
2023-04-05T14:26:27.977Z,22.74
2023-04-05T14:28:54.975Z,23.96
2023-04-05T14:31:25.081Z,23.54
2023-04-05T14:33:52.182Z,23.58
2023-04-05T14:36:18.827Z,24.43
2023-04-05T14:38:45.437Z,23.39
2023-04-05T14:41:15.078Z,21.98
2023-04-05T14:43:41.988Z,25.46
2023-04-05T14:46:12.555Z,24.06
2023-04-05T14:48:41.209Z,24.72
2023-04-05T14:51:07.863Z,23.63
2023-04-05T14:53:34.373Z,22.87
2023-04-05T14:56:01.001Z,21.98
2023-04-05T14:58:29.249Z,23.58
2023-04-05T15:00:56.870Z,23.65
2023-04-05T15:03:24.616Z,23.50
2023-04-05T15:05:51.279Z,22.44
2023-04-05T15:08:17.828Z,23.70
2023-04-05T15:10:45.159Z,22.74
2023-04-05T15:13:12.670Z,23.68
2023-04-05T15:15:41.964Z,23.56
2023-04-05T15:18:12.105Z,23.09
2023-04-05T15:20:41.883Z,23.51
2023-04-05T15:23:11.175Z,24.54
2023-04-05T15:25:37.694Z,24.92
2023-04-05T15:28:07.068Z,25.66
2023-04-05T15:30:33.750Z,26.14
2023-04-05T15:33:00.817Z,24.33
2023-04-05T15:35:27.548Z,24.75
2023-04-05T15:37:54.097Z,27.54
2023-04-05T15:40:20.847Z,24.49
2023-04-05T15:42:47.399Z,24.50
2023-04-05T15:45:13.999Z,25.29
2023-04-05T15:47:43.670Z,24.87
2023-04-05T15:50:13.329Z,25.23
2023-04-05T15:52:44.747Z,24.12
2023-04-05T15:55:14.024Z,27.08
2023-04-05T15:57:43.716Z,27.54
2023-04-05T16:00:13.807Z,27.29
2023-04-05T16:02:43.917Z,27.11
2023-04-05T16:05:13.439Z,27.25
2023-04-05T16:07:43.042Z,27.61
2023-04-05T16:10:11.848Z,27.51
2023-04-05T16:12:40.883Z,27.02
2023-04-05T16:15:08.031Z,27.21
2023-04-05T16:17:34.783Z,29.07
2023-04-05T16:20:01.412Z,29.37
2023-04-05T16:22:28.045Z,29.70
2023-04-05T16:24:54.592Z,29.17
2023-04-05T16:27:21.236Z,28.99
2023-04-05T16:29:47.855Z,29.26
2023-04-05T16:32:14.635Z,30.18
2023-04-05T16:34:42.541Z,29.54
2023-04-05T16:37:09.710Z,29.90
2023-04-05T16:39:36.252Z,28.24
2023-04-05T16:42:02.915Z,28.45
2023-04-05T16:44:31.688Z,28.09
2023-04-05T16:46:58.742Z,28.73
2023-04-05T16:49:25.526Z,28.69
2023-04-05T16:51:52.470Z,28.12
2023-04-05T16:54:18.991Z,29.51
2023-04-05T16:56:45.521Z,29.81
2023-04-05T16:59:12.244Z,30.54
2023-04-05T17:01:41.572Z,31.10
2023-04-05T17:04:08.438Z,31.41
2023-04-05T17:06:35.035Z,31.65
2023-04-05T17:09:01.913Z,32.23
2023-04-05T17:11:28.685Z,32.44
2023-04-05T17:13:55.625Z,32.33
2023-04-05T17:16:22.473Z,32.34
2023-04-05T17:18:49.126Z,32.28
2023-04-05T17:21:15.784Z,35.09
2023-04-05T17:23:42.366Z,33.48
2023-04-05T17:26:10.368Z,32.64
2023-04-05T17:28:36.982Z,33.26
2023-04-05T17:31:03.985Z,34.01
2023-04-05T17:33:32.873Z,34.88
2023-04-05T17:35:59.864Z,34.60
2023-04-05T17:38:27.744Z,34.39
2023-04-05T17:40:57.179Z,34.88
2023-04-05T17:43:24.217Z,35.56
2023-04-05T17:45:51.637Z,36.16
2023-04-05T17:48:19.035Z,36.32
2023-04-05T17:50:46.088Z,37.04
2023-04-05T17:53:14.483Z,37.44
2023-04-05T17:55:44.028Z,37.03
2023-04-05T17:58:13.582Z,37.61
2023-04-05T18:00:45.485Z,38.22
2023-04-05T18:03:13.336Z,39.19
2023-04-05T18:05:42.004Z,39.49
2023-04-05T18:08:10.924Z,39.63
2023-04-05T18:10:37.482Z,40.72
2023-04-05T18:13:05.780Z,41.43
2023-04-05T18:15:32.344Z,42.15
2023-04-05T18:17:58.962Z,42.44
2023-04-05T18:20:25.470Z,42.87
2023-04-05T18:22:51.982Z,42.78
2023-04-05T18:25:20.308Z,43.15
2023-04-05T18:27:48.110Z,43.21
2023-04-05T18:30:14.908Z,43.73
2023-04-05T18:32:41.988Z,43.96
2023-04-05T18:35:14.792Z,43.84
2023-04-05T18:37:44.584Z,43.86
2023-04-05T18:40:15.844Z,44.61
2023-04-05T18:42:42.610Z,45.29
2023-04-05T18:45:10.619Z,45.80
2023-04-05T18:47:37.420Z,46.01
2023-04-05T18:50:04.787Z,46.13
2023-04-05T18:52:34.324Z,46.04
2023-04-05T18:56:38.240Z,45.83
2023-04-05T18:58:22.959Z,45.82
2023-04-05T19:00:49.526Z,45.66
2023-04-05T19:03:19.613Z,46.18
2023-04-05T19:05:53.177Z,46.72
2023-04-05T19:08:20.037Z,46.68
2023-04-05T19:10:46.856Z,47.20
2023-04-05T19:13:13.347Z,47.68
2023-04-05T19:15:42.858Z,46.81
2023-04-05T19:18:11.950Z,46.34
2023-04-05T19:20:38.465Z,47.04
2023-04-05T19:23:05.096Z,47.72
2023-04-05T19:25:31.703Z,47.64
2023-04-05T19:27:58.245Z,47.85
2023-04-05T19:30:24.807Z,47.68
2023-04-05T19:32:54.643Z,47.84
2023-04-05T19:35:21.241Z,47.92
2023-04-05T19:37:47.822Z,48.04
2023-04-05T19:40:14.421Z,48.31
2023-04-05T19:42:47.269Z,48.12
2023-04-05T19:45:24.465Z,48.34
2023-04-05T19:47:51.157Z,48.09
2023-04-05T19:50:48.877Z,48.22
2023-04-05T19:53:49.876Z,48.34
2023-04-05T19:56:25.622Z,49.18
2023-04-05T19:59:03.550Z,49.89
2023-04-05T20:01:45.741Z,50.10
2023-04-05T20:04:15.212Z,50.26
2023-04-05T20:06:45.122Z,50.06
2023-04-05T20:09:17.075Z,50.79
2023-04-05T20:11:51.035Z,50.81
2023-04-05T20:14:19.875Z,51.17
2023-04-05T20:16:46.452Z,51.44
2023-04-05T20:19:16.178Z,51.10
2023-04-05T20:21:45.675Z,51.32
2023-04-05T20:24:21.989Z,51.36
2023-04-05T20:26:48.645Z,51.36
2023-04-05T20:29:19.509Z,51.92
2023-04-05T20:31:46.349Z,51.67
2023-04-05T20:34:24.533Z,52.60
2023-04-05T20:36:55.011Z,53.01
2023-04-05T20:39:23.656Z,53.52
2023-04-05T20:41:50.397Z,53.82
2023-04-05T20:44:16.922Z,58.27
2023-04-05T20:46:43.550Z,55.69
2023-04-05T20:49:10.267Z,56.13
2023-04-05T20:51:41.874Z,55.22
2023-04-05T20:54:09.392Z,55.22
2023-04-05T20:56:36.014Z,55.67
2023-04-05T20:59:02.611Z,55.55
2023-04-05T21:01:29.266Z,56.13
2023-04-05T21:03:56.290Z,55.59
2023-04-05T21:06:22.921Z,55.85
2023-04-05T21:08:49.531Z,55.10
2023-04-05T21:11:16.026Z,56.44
2023-04-05T21:13:45.900Z,56.23
2023-04-05T21:16:13.478Z,55.42
2023-04-05T21:18:40.072Z,55.56
2023-04-05T21:21:06.658Z,55.15
2023-04-05T21:23:34.531Z,54.99
2023-04-05T21:26:01.282Z,55.44
2023-04-05T21:28:27.815Z,56.58
2023-04-05T21:30:54.350Z,56.71
2023-04-05T21:33:21.190Z,56.51
2023-04-05T21:35:47.996Z,57.09
2023-04-05T21:38:17.768Z,57.19
2023-04-05T21:40:49.898Z,57.42
2023-04-05T21:43:16.666Z,56.96
2023-04-05T21:45:45.212Z,57.85
2023-04-05T21:48:11.734Z,57.83
2023-04-05T21:50:38.243Z,57.51
2023-04-05T21:53:07.320Z,57.79
2023-04-05T21:55:36.075Z,58.00
2023-04-05T21:58:02.607Z,57.69
2023-04-05T22:00:29.187Z,57.69
2023-04-05T22:02:55.885Z,58.33
2023-04-05T22:05:36.229Z,58.11
2023-04-05T22:08:05.836Z,59.18
2023-04-05T22:10:32.888Z,59.73
2023-04-05T22:12:59.394Z,60.31
2023-04-05T22:15:26.054Z,61.00
2023-04-05T22:17:52.630Z,61.21
2023-04-05T22:20:19.301Z,61.63
2023-04-05T22:22:47.162Z,61.54
2023-04-05T22:25:13.747Z,61.84
2023-04-05T22:27:40.760Z,61.19
2023-04-05T22:30:08.471Z,61.46
2023-04-05T22:32:36.045Z,61.79
2023-04-05T22:35:04.675Z,61.70
2023-04-05T22:37:35.823Z,62.67
2023-04-05T22:40:04.452Z,62.99
2023-04-05T22:42:31.728Z,63.28
2023-04-05T22:44:58.572Z,62.66
2023-04-05T22:47:25.268Z,63.47
2023-04-05T22:49:52.349Z,63.48
2023-04-05T22:52:19.734Z,63.72
2023-04-05T22:54:46.501Z,64.08
2023-04-05T22:57:14.178Z,63.98
2023-04-05T22:59:40.885Z,63.71
2023-04-05T23:02:07.594Z,63.92
2023-04-05T23:04:34.180Z,63.82
2023-04-05T23:07:00.820Z,64.22
2023-04-05T23:09:27.381Z,63.88
2023-04-05T23:11:53.865Z,63.97
2023-04-05T23:14:20.982Z,64.15
2023-04-05T23:16:47.549Z,64.33
2023-04-05T23:19:14.145Z,64.98
2023-04-05T23:21:40.899Z,65.06
2023-04-05T23:24:07.656Z,64.69
2023-04-05T23:26:34.418Z,66.14
2023-04-05T23:29:00.996Z,65.59
2023-04-05T23:31:27.847Z,65.66
2023-04-05T23:33:54.893Z,65.92
2023-04-05T23:36:24.450Z,66.10
2023-04-05T23:38:52.074Z,65.99
2023-04-05T23:41:18.588Z,65.90
2023-04-05T23:43:46.039Z,63.63
2023-04-05T23:46:12.863Z,61.49
2023-04-05T23:48:39.452Z,60.90
2023-04-05T23:51:06.322Z,61.77
2023-04-05T23:53:32.839Z,61.66
2023-04-05T23:55:59.378Z,61.79
2023-04-05T23:58:25.947Z,62.33
